Latest Weather Observations for Campania

IDT60801

Issued at 10:31 pm EST Saturday 29 August 2015 (issued every 30 minutes, with the page automatically refreshed every 10 minutes)

About weather observations | Map of weather stations | Latest weather observations for TAS | Other Formats
Station Details ID: 094212 Name: CAMPANIA (KINCORA) Lat: -42.69 Lon: 147.43 Height: 45.0 m
Data from the previous 72 hours. | See also: Recent months at Campania
Date/Time
EST
Temp
°C
App
Temp
°C
Dew
Point
Rel
Hum
%
Delta-T
°C
Wind Press
QNH
hPa
Press
MSL
hPa
Rain
since 9 am
mm
Dir
 
Spd
km/h
Gust
km/h
Spd
kts
Gust
kts
29/10:30pm 7.0 1.9 2.9 75 1.7 SSW 19 26 10 14 - - 1.6
29/10:00pm 7.2 1.4 2.5 72 2.0 SSW 22 32 12 17 - - 1.6
29/09:30pm 7.6 1.1 2.5 70 2.1 SSW 26 35 14 19 - - 1.6
29/09:00pm 7.5 1.0 2.8 72 2.0 SSW 26 35 14 19 - - 1.6
29/08:30pm 7.3 2.0 3.2 75 1.7 SSW 20 30 11 16 - - 1.6
29/08:00pm 7.2 2.0 3.6 78 1.5 S 20 28 11 15 - - 1.6
29/07:30pm 7.3 1.0 3.9 79 1.5 SSW 26 39 14 21 - - 1.6
29/07:00pm 7.2 1.0 4.3 82 1.3 SSW 26 33 14 18 - - 1.6
29/06:30pm 7.1 2.1 4.6 84 1.1 SSW 20 28 11 15 - - 1.4
29/06:00pm 7.4 1.7 4.7 83 1.2 S 24 32 13 17 - - 1.4
29/05:30pm 7.6 2.4 5.7 88 0.9 S 22 30 12 16 - - 1.4
29/05:00pm 7.5 2.4 6.1 91 0.6 S 22 35 12 19 - - 1.4
29/04:33pm 7.5 1.3 6.1 91 0.6 S 28 46 15 25 - - 1.4
29/04:30pm 7.6 1.4 6.2 91 0.6 S 28 39 15 21 - - 1.4
29/04:00pm 7.7 2.0 6.5 92 0.6 S 26 39 14 21 - - 1.4
29/03:30pm 7.3 1.5 6.4 94 0.4 S 26 33 14 18 - - 1.4
29/03:00pm 7.7 0.8 6.6 93 0.5 S 32 43 17 23 - - 1.2
29/02:30pm 8.0 1.6 7.1 94 0.4 S 30 41 16 22 - - 1.2
29/02:00pm 7.7 0.9 6.8 94 0.4 S 32 44 17 24 - - 1.2
29/01:34pm 8.0 1.2 7.1 94 0.4 S 32 50 17 27 - - 1.0
29/01:30pm 8.0 1.6 7.1 94 0.4 S 30 39 16 21 - - 1.0
29/01:00pm 7.8 1.4 6.9 94 0.4 S 30 43 16 23 - - 0.8
29/12:30pm 7.8 0.7 6.6 92 0.6 SSW 33 46 18 25 - - 0.6
29/12:00pm 7.9 1.7 6.2 89 0.8 S 28 39 15 21 - - 0.4
29/11:30am 8.4 -0.3 6.0 85 1.1 S 41 56 22 30 - - 0.2
29/11:07am 8.1 1.0 6.4 89 0.8 S 33 52 18 28 - - 0.2
29/11:00am 7.9 0.4 6.2 89 0.8 S 35 46 19 25 - - 0.2
29/10:30am 8.3 0.4 6.1 86 1.0 S 37 59 20 32 - - 0.2
29/10:29am 8.3 0.4 6.1 86 1.0 S 37 59 20 32 - - 0.2
29/10:00am 8.3 1.8 6.6 89 0.8 S 30 44 16 24 - - 0.2
29/09:40am 8.1 0.3 6.6 90 0.7 S 37 56 20 30 - - 0.2
29/09:30am 8.2 0.0 6.5 89 0.8 S 39 56 21 30 - - 0.0
29/09:00am 8.4 0.7 7.0 91 0.7 S 37 57 20 31 - - 23.8
29/08:40am 8.3 1.0 7.2 93 0.5 S 35 57 19 31 - - 23.8
29/08:30am 8.2 1.4 7.0 92 0.6 S 32 43 17 23 - - 23.6
29/08:03am 8.2 0.9 7.0 92 0.6 S 35 54 19 29 - - 23.6
29/08:00am 8.3 0.6 7.1 92 0.6 S 37 54 20 29 - - 23.4
29/07:30am 8.5 1.2 7.1 91 0.7 S 35 54 19 29 - - 22.6
29/07:05am 8.5 1.2 7.3 92 0.6 S 35 54 19 29 - - 21.8
29/07:00am 8.5 0.8 7.3 92 0.6 S 37 54 20 29 - - 21.8
29/06:30am 8.4 1.1 7.0 91 0.7 S 35 56 19 30 - - 20.8
29/06:29am 8.5 1.6 7.1 91 0.7 S 33 56 18 30 - - 20.6
29/06:00am 8.4 1.7 7.2 92 0.6 S 32 46 17 25 - - 20.2
29/05:54am 8.2 1.4 7.0 92 0.6 S 32 50 17 27 - - 20.0
29/05:51am 8.2 0.9 7.0 92 0.6 S 35 50 19 27 - - 20.0
29/05:30am 6.5 2.9 5.1 91 0.6 S 13 22 7 12 - - 19.6
29/05:00am 5.4 2.8 4.2 92 0.5 S 7 17 4 9 - - 18.8
29/04:30am 5.3 2.8 3.8 90 0.6 S 6 11 3 6 - - 17.8
29/04:00am 5.0 1.1 3.3 89 0.7 SW 13 19 7 10 - - 17.2
29/03:30am 4.8 0.8 3.1 89 0.7 WSW 13 19 7 10 - - 16.2
29/03:00am 4.3 -0.9 2.7 89 0.6 W 19 28 10 15 - - 15.4
29/02:30am 4.2 -1.0 2.4 88 0.7 W 19 28 10 15 - - 14.4
29/02:00am 3.9 -1.6 2.1 88 0.7 W 20 28 11 15 - - 13.4
29/01:30am 3.8 -2.4 2.0 88 0.7 W 24 35 13 19 - - 12.2
29/01:00am 3.9 -2.7 1.9 87 0.8 W 26 35 14 19 - - 10.8
29/12:30am 4.7 -3.1 1.7 81 1.2 W 32 48 17 26 - - 10.6
29/12:00am 4.3 -2.7 1.8 84 1.0 W 28 35 15 19 - - 10.4
 
Date/Time
EST
Temp
°C
App
Temp
°C
Dew
Point
Rel
Hum
%
Delta-T
°C
Wind Press
QNH
hPa
Press
MSL
hPa
Rain
since 9 am
mm
Dir
 
Spd
km/h
Gust
km/h
Spd
kts
Gust
kts
28/11:30pm 4.1 -3.4 1.5 83 1.0 W 30 44 16 24 - - 9.4
28/11:00pm 4.4 -2.7 1.3 80 1.2 WNW 28 39 15 21 - - 8.0
28/10:30pm 4.0 -1.9 1.4 83 1.0 WNW 22 33 12 18 - - 8.0
28/10:00pm 3.5 -3.2 1.4 86 0.8 WNW 26 43 14 23 - - 7.4
28/09:30pm 3.3 -3.4 1.2 86 0.8 WNW 26 39 14 21 - - 7.0
28/09:00pm 3.9 -2.1 0.9 81 1.2 WNW 22 33 12 18 - - 5.2
28/08:30pm 3.9 -1.7 1.1 82 1.1 W 20 30 11 16 - - 5.2
28/08:00pm 4.1 -2.0 0.6 78 1.3 W 22 33 12 18 - - 4.6
28/07:30pm 4.5 -0.6 0.5 75 1.5 W 17 28 9 15 - - 4.2
28/07:00pm 5.1 1.0 -0.3 68 2.0 W 11 20 6 11 - - 4.2
28/06:30pm 5.2 1.9 -0.2 68 2.1 W 7 15 4 8 - - 4.2
28/06:00pm 5.3 -0.4 -0.9 64 2.3 SSW 19 32 10 17 - - 4.2
28/05:30pm 5.4 -1.6 -0.6 65 2.3 SW 26 37 14 20 - - 4.2
28/05:00pm 5.6 -0.2 -0.2 66 2.2 SSW 20 32 11 17 - - 4.2
28/04:43pm 5.8 -1.4 0.8 70 2.0 S 28 43 15 23 - - 4.0
28/04:30pm 6.1 1.7 0.2 66 2.3 SW 13 24 7 13 - - 4.0
28/04:00pm 6.3 3.4 1.6 72 1.9 SW 6 9 3 5 - - 3.8
28/03:30pm 5.4 1.7 2.6 82 1.1 S 11 15 6 8 - - 3.8
28/03:00pm 4.4 -4.2 2.4 87 0.8 SSW 37 46 20 25 - - 3.6
28/02:58pm 4.4 -4.6 2.3 86 0.8 SSW 39 46 21 25 - - 3.2
28/02:35pm 6.7 -0.2 2.8 76 1.6 S 28 50 15 27 - - 2.8
28/02:30pm 8.0 2.7 3.1 71 2.1 S 20 30 11 16 - - 2.6
28/02:00pm 6.6 0.5 2.7 76 1.6 S 24 35 13 19 - - 2.6
28/01:30pm 5.9 -1.8 2.2 77 1.5 SSE 32 44 17 24 - - 2.6
28/01:14pm 7.8 0.9 2.3 68 2.3 S 28 48 15 26 - - 2.6
28/01:00pm 6.3 0.2 2.8 78 1.5 S 24 35 13 19 - - 2.6
28/12:43pm 6.3 -0.8 3.3 81 1.3 SSW 30 56 16 30 - - 2.6
28/12:30pm 5.3 -2.4 2.5 82 1.1 SSW 32 43 17 23 - - 2.6
28/12:00pm 5.0 -1.2 2.4 83 1.1 SW 24 44 13 24 - - 2.4
28/11:47am 5.0 -2.7 2.5 84 1.0 SSW 32 52 17 28 - - 2.0
28/11:30am 4.5 -0.6 3.2 91 0.5 SSW 19 32 10 17 - - 2.0
28/11:08am 5.4 -2.5 2.2 80 1.3 SSW 33 54 18 29 - - 0.4
28/11:00am 6.9 0.9 3.2 77 1.6 SSW 24 35 13 19 - - 0.4
28/10:30am 4.7 -1.9 2.1 83 1.0 SSE 26 39 14 21 - - 0.2
28/10:00am 7.3 -0.5 2.0 69 2.2 S 32 43 17 23 - - 0.0
28/09:30am 6.1 -0.6 1.2 71 1.9 S 26 33 14 18 - - 0.0
28/09:00am 6.4 -0.6 1.7 72 1.9 SSW 28 41 15 22 - - 0.6
28/08:53am 6.4 -0.7 1.5 71 2.0 S 28 41 15 22 - - 0.6
28/08:30am 5.7 1.1 1.6 75 1.6 S 15 20 8 11 - - 0.6
28/08:00am 5.2 0.9 1.3 76 1.5 SSW 13 20 7 11 - - 0.6
28/07:30am 4.4 -2.2 1.8 83 1.0 S 26 37 14 20 - - 0.6
28/07:00am 5.7 0.2 0.5 69 2.0 SSW 19 28 10 15 - - 0.4
28/06:30am 4.7 0.4 0.8 76 1.5 S 13 20 7 11 - - 0.4
28/06:00am 5.2 0.7 1.9 79 1.3 S 15 22 8 12 - - 0.4
28/05:30am 5.4 -1.6 2.2 80 1.3 SSW 28 43 15 23 - - 0.4
28/05:00am 6.4 1.1 3.2 80 1.3 SSW 20 26 11 14 - - 0.4
28/04:30am 6.2 1.2 3.7 84 1.1 S 19 26 10 14 - - 0.4
28/04:00am 6.1 1.0 3.9 86 0.9 S 20 26 11 14 - - 0.4
28/03:30am 6.4 1.1 5.0 91 0.6 S 22 35 12 19 - - 0.2
28/03:00am 6.6 1.3 4.8 88 0.8 S 22 30 12 16 - - 0.2
28/02:30am 7.0 1.0 5.3 89 0.8 S 26 39 14 21 - - 0.2
28/02:00am 7.1 1.2 5.9 92 0.5 S 26 37 14 20 - - 0.2
28/01:30am 6.0 3.6 5.3 95 0.3 SSE 7 11 4 6 - - 0.2
28/01:00am 6.0 3.8 5.3 95 0.3 SE 6 9 3 5 - - 0.2
28/12:30am 5.0 2.4 4.1 94 0.4 NNW 7 11 4 6 - - 0.2
28/12:00am 4.7 2.6 3.8 94 0.4 NNW 4 7 2 4 - - 0.2
 
Date/Time
EST
Temp
°C
App
Temp
°C
Dew
Point
Rel
Hum
%
Delta-T
°C
Wind Press
QNH
hPa
Press
MSL
hPa
Rain
since 9 am
mm
Dir
 
Spd
km/h
Gust
km/h
Spd
kts
Gust
kts
27/11:30pm 6.1 4.6 5.1 93 0.4 NNW 2 7 1 4 - - 0.2
27/11:00pm 7.3 5.1 6.2 93 0.5 NNW 7 7 4 4 - - 0.2
27/10:30pm 8.0 6.5 6.8 92 0.6 NW 4 7 2 4 - - 0.2
27/10:00pm 8.2 7.5 6.8 91 0.6 CALM 0 0 0 0 - - 0.2
27/09:30pm 8.4 7.6 6.7 89 0.8 CALM 0 0 0 0 - - 0.2
27/09:00pm 8.8 8.1 6.8 87 0.9 CALM 0 0 0 0 - - 0.0
27/08:30pm 9.0 8.3 6.8 86 1.0 CALM 0 0 0 0 - - 0.0
27/08:00pm 9.3 7.8 6.7 84 1.2 SSW 4 6 2 3 - - 0.0
27/07:30pm 9.4 7.5 6.5 82 1.3 SE 6 9 3 5 - - 0.0
27/07:00pm 9.6 7.2 6.9 83 1.3 SSW 9 11 5 6 - - 0.0
27/06:30pm 9.6 6.7 6.7 82 1.4 SSE 11 15 6 8 - - 0.0
27/06:00pm 9.8 6.0 6.0 77 1.8 S 15 20 8 11 - - 0.0
27/05:30pm 10.0 5.8 5.6 74 2.0 SSE 17 24 9 13 - - 0.0
27/05:00pm 10.7 6.7 4.8 67 2.7 SSE 15 22 8 12 - - 0.0
27/04:30pm 11.4 7.8 5.1 65 2.9 SE 13 19 7 10 - - 0.0
27/04:00pm 11.9 7.7 5.8 66 2.9 SE 17 24 9 13 - - 0.0
27/03:30pm 12.6 7.6 4.8 59 3.6 SSE 20 26 11 14 - - 0.0
27/03:00pm 13.1 8.7 5.0 58 3.8 SSE 17 22 9 12 - - 0.0
27/02:30pm 13.1 9.5 5.0 58 3.8 SSE 13 19 7 10 - - 0.0
27/02:00pm 13.1 9.6 5.3 59 3.6 S 13 17 7 9 - - 0.0
27/01:30pm 13.3 10.3 4.2 54 4.2 S 9 17 5 9 - - 0.0
27/01:00pm 13.5 10.9 4.1 53 4.3 SSW 7 15 4 8 - - 0.0
27/12:30pm 12.9 10.3 4.1 55 4.0 SSE 7 11 4 6 - - 0.0
27/12:00pm 12.5 9.9 4.2 57 3.8 NW 7 11 4 6 - - 0.0
27/11:30am 11.9 9.3 4.4 60 3.4 ESE 7 9 4 5 - - 0.0
27/11:00am 11.3 9.4 4.7 64 3.0 SE 4 9 2 5 - - 0.0
27/10:30am 10.7 9.1 4.4 65 2.8 W 2 9 1 5 - - 0.0
27/10:00am 9.9 7.3 4.1 67 2.6 NNW 7 9 4 5 - - 0.0
27/09:30am 8.6 5.2 4.2 74 1.9 N 11 13 6 7 - - 0.0
27/09:00am 7.8 6.2 4.7 81 1.4 N 2 6 1 3 - - 0.2
27/08:30am 7.0 4.4 4.1 82 1.2 N 7 9 4 5 - - 0.2
27/08:00am 5.9 4.7 4.4 90 0.6 CALM 0 0 0 0 - - 0.2
27/07:30am 5.1 3.7 3.8 91 0.5 CALM 0 0 0 0 - - 0.2
27/07:00am 4.8 3.4 3.3 90 0.6 CALM 0 0 0 0 - - 0.2
27/06:30am 5.2 2.1 3.5 89 0.7 N 9 11 5 6 - - 0.2
27/06:00am 4.4 1.6 3.2 92 0.5 N 7 7 4 4 - - 0.2
27/05:30am 4.3 2.1 3.3 93 0.4 N 4 9 2 5 - - 0.2
27/05:00am 4.1 1.3 3.2 94 0.4 N 7 7 4 4 - - 0.2
27/04:30am 3.6 2.0 2.7 94 0.4 CALM 0 0 0 0 - - 0.2
27/04:00am 3.1 1.5 2.2 94 0.4 CALM 0 0 0 0 - - 0.2
27/03:30am 3.1 1.4 2.1 93 0.4 CALM 0 0 0 0 - - 0.2
27/03:00am 2.9 1.2 1.9 93 0.4 CALM 0 6 0 3 - - 0.2
27/02:30am 3.0 1.0 2.1 94 0.4 W 2 7 1 4 - - 0.2
27/02:00am 2.6 0.9 1.7 94 0.3 CALM 0 7 0 4 - - 0.2
27/01:30am 1.4 -0.5 0.4 93 0.4 CALM 0 0 0 0 - - 0.2
27/01:00am 1.0 -1.0 -0.1 92 0.4 CALM 0 0 0 0 - - 0.2
27/12:30am 2.5 -0.6 1.3 92 0.5 N 7 9 4 5 - - 0.2
27/12:00am 1.9 -1.7 0.6 91 0.5 NNW 9 11 5 6 - - 0.2
 
Date/Time
EST
Temp
°C
App
Temp
°C
Dew
Point
Rel
Hum
%
Delta-T
°C
Wind Press
QNH
hPa
Press
MSL
hPa
Rain
since 9 am
mm
Dir
 
Spd
km/h
Gust
km/h
Spd
kts
Gust
kts
26/11:30pm 2.5 -1.0 1.2 91 0.5 N 9 11 5 6 - - 0.2
26/11:00pm 2.4 -1.5 1.1 91 0.5 N 11 11 6 6 - - 0.2

Other Formats:

Comma delimited format used in spreadsheet applications
http://www.bom.gov.au/fwo/IDT60801/IDT60801.95972.axf

JavaScript Object Notation format (JSON) in row-major order
http://www.bom.gov.au/fwo/IDT60801/IDT60801.95972.json